Aguas Mornas, Brazil
Current Conditions -  °F | °C
As of 8:00 PM on Friday 28 Nov 2014 (Local Time) from SBFL Reporting Station
Broken Clouds Broken Clouds  
Wind Chill: 75°   Ceiling: 2500
Heat Index: 75°   Visibility: 6mi
Dew Point: 68°   Wind: 12mph
Humidity: 78%   Direction: 120°ESE
Pressure: 30.03"   Gusts: NA
Location:  27.69°S, 48.82°W
Report Text: SBFL 282200Z 12010KT 9999 BKN025 24/20 Q1017
Loading
Personal Weather Stations






























Interactive Weather Map New forecast layout! Learn more

10-Day Weather Forecast

Advertisements
Track Severe Weather on mobile